Tiempo atmosférico en la estación meteorológica de Lalastra, Araba/Álava (910 m.)



Fecha
DESCASC
Temp. máxima en grados centígrados (hora)
DESCASC
Temp. mínima en grados centígrados (hora)
DESCASC
Temp. media en grados centígrados
DESCASC
Racha de viento máxima en m/sg (hora)
DESCASC
Velocidad máxima media en intervalos de 10 minutos(hora)
DESCASC
Precipitaciones diarias en mm
DESCASC
Precipitaciones de 00:00 a 06:00 en mm
DESCASC
Precipitaciones de 06:00 a 12:00 en mm
DESCASC
Precipitaciones de 12:00 a 18:00 en mm
DESCASC
Precipitaciones de 18:00 a 24:00 en mm
DESCASC
29-03-2020 10.8 (15:30) -0.6 (08:00) 5.1 12.78 (23:50) 5.56 (22:30) 1.6 0 0 0 1.6
28-03-2020 15 (15:30) -2.5 (06:50) 6.3 8.33 (17:30) 2.78 (15:40) 0 0 0 0 0
27-03-2020 11 (15:20) -4.1 (07:10) 3.5 6.11 (15:20) 2.78 (19:30) 0 0 0 0 0
26-03-2020 8.3 (16:00) 0 (00:00) 4.2 9.72 (10:20) 5 (12:30) 0 0 0 0 0
25-03-2020 14 (14:00) -0.2 (00:00) 6.9 7.5 (10:40) 3.89 (15:50) 0 0 0 0 0
24-03-2020 14.5 (16:30) 3.1 (00:00) 8.8 7.5 (13:10) 3.89 (12:30) 0 0 0 0 0
23-03-2020 13.3 (16:00) 3.7 (00:00) 8.5 8.06 (22:10) 3.33 (16:30) 0 0 0 0 0
22-03-2020 14.8 (14:30) 0.8 (06:30) 7.8 9.72 (17:20) 5 (17:20) 0 0 0 0 0
21-03-2020 15 (15:00) 1.7 (00:00) 8.4 5.28 (12:50) 2.78 (12:40) 0 0 0 0 0
20-03-2020 13.8 (14:30) 1.5 (00:00) 7.7 7.22 (15:30) 3.61 (14:10) 0 0 0 0 0
19-03-2020 16 (14:50) 3.9 (00:00) 10 6.67 (14:20) 3.61 (15:20) 0 0 0 0 0
18-03-2020 16.3 (15:10) 3 (00:00) 9.6 5 (15:20) 2.78 (15:30) 0 0 0 0 0
17-03-2020 7.6 (19:20) 4.2 (00:00) 5.9 11.11 (00:50) 5.56 (00:10) 3.6 1.6 1.6 0.4 0
16-03-2020 4.3 (16:20) 0.7 (00:00) 2.5 16.39 (10:50) 8.61 (10:50) 24 5 12 5 2
15-03-2020 17.7 (15:40) 0.1 (00:00) 8.9 11.11 (17:10) 6.39 (17:10) 11.2 0 0 0 11.2
14-03-2020 13.7 (16:10) -3.2 (-00:0) 5.2 5 (11:30) 2.22 (11:40) 0.2 0 0.2 0 0
13-03-2020 -- (--) -- (--) -- -- (--) -- (--) 0 0 0 0 0
12-03-2020 -- (--) -- (--) -- -- (--) -- (--) 0 0 0 0 0
11-03-2020 -- (--) -- (--) -- -- (--) -- (--) -- 0 -- 0 0
10-03-2020 -- (--) -- (--) -- -- (--) -- (--) 0 0 0 0 0
09-03-2020 -- (--) -- (--) -- -- (--) -- (--) -- 0 0 0 --
08-03-2020 -- (--) -- (--) -- -- (--) -- (--) 0 0 0 0 0
07-03-2020 8.9 (14:50) 0 (00:00) 4.4 10.83 (01:00) 5 (01:00) 1.2 0.6 0.6 0 0
06-03-2020 -- (--) -- (--) -- -- (--) -- (--) -- 0 6.8 -- 1.2
05-03-2020 11.1 (12:30) 2.2 (00:00) 6.7 21.11 (03:30) 10.83 (03:40) 2.4 0 2 0.4 0
04-03-2020 15.4 (14:20) 5.9 (00:00) 10.6 15.56 (23:59) 6.11 (23:59) 1 1 0 0 0
03-03-2020 14.4 (14:10) 0.7 (00:00) 7.5 19.17 (09:30) 9.17 (15:20) 8 2.4 5.6 0 0
02-03-2020 9.8 (04:00) 0.7 (00:00) 5.3 23.89 (04:20) 10.83 (04:20) 7 6.6 0 0.4 0
01-03-2020 13.3 (15:00) 5.6 (00:00) 9.5 16.39 (03:20) 7.5 (07:00) 0.4 0 0 0 0.4
29-02-2020 11.4 (14:50) 6.4 (00:00) 8.9 17.78 (05:40) 7.5 (05:40) 2.2 0 2 0.2 0

Gráficas

Temp. máximas Temp. mínimas Temp. medias Precipitaciones Rachas de viento máximas Velocidades máximas media en intervalos de 10 minutos

Datos horarios

Fecha y hora oficial Temperatura (ºC) Velocidad del viento (km/h) Dirección del viento Racha (km/h) Dirección de racha Precipitación (mm) Presión (hPa) Tendencia (hPa) Humedad (%)
2020-03-29 23:00:00 1.9 17 Norte 36 Norte 0.2 -- -- 98
2020-03-29 22:00:00 2.5 18 Norte 30 Nordeste 0.4 -- -- 98
2020-03-29 21:00:00 3.2 10 Norte 24 Norte 0.2 -- -- 98
2020-03-29 20:00:00 3.6 13 Norte 34 Norte 0.2 -- -- 97
2020-03-29 19:00:00 4.2 14 Norte 33 Norte 0.4 -- -- 96
2020-03-29 18:00:00 5.4 14 Norte 27 Norte 0 -- -- 90
2020-03-29 17:00:00 7.5 15 Norte 35 Norte 0 -- -- 76
2020-03-29 16:00:00 10.7 11 Noroeste 30 Oeste 0 -- -- 59
2020-03-29 15:00:00 10.4 13 Noroeste 34 Norte 0 -- -- 57
2020-03-29 14:00:00 10.2 12 Noroeste 33 Noroeste 0 -- -- 57
2020-03-29 13:00:00 10.2 6 Noroeste 22 Noroeste 0 -- -- 45
2020-03-29 12:00:00 9.1 7 Este 19 Este 0 -- -- 57
2020-03-29 11:00:00 7.2 4 Noroeste 26 Nordeste 0 -- -- 67
2020-03-29 10:00:00 5.2 4 Norte 13 Norte 0 -- -- 81
2020-03-29 09:00:00 0.8 2 Sudoeste 9 Norte 0 -- -- 95
2020-03-29 08:00:00 -0.6 0 Calma 6 Sudoeste 0 -- -- 79
2020-03-29 07:00:00 0 0 Calma 4 Este 0 -- -- 78
2020-03-29 06:00:00 0 0 Calma 5 Oeste 0 -- -- 84
2020-03-29 05:00:00 -0.3 0 Calma 9 Nordeste 0 -- -- 86
2020-03-29 03:00:00 -0.1 0 Calma 4 Este 0 -- -- 92
2020-03-29 01:00:00 0.4 0 Calma 5 Este 0 -- -- 89
2020-03-29 00:00:00 1.2 0 Calma 6 Este 0 -- -- 88
2020-03-28 23:00:00 2.2 0 Calma 6 Este 0 -- -- 86
2020-03-28 22:00:00 3.4 0 Calma 4 Este 0 -- -- 84
2020-03-28 21:00:00 5.6 0 Calma 10 Nordeste 0 -- -- 76
2020-03-28 20:00:00 7.6 3 Oeste 18 Este 0 -- -- 72
2020-03-28 19:00:00 9.9 9 Nordeste 24 Nordeste 0 -- -- 67
2020-03-28 18:00:00 12.1 10 Nordeste 30 Norte 0 -- -- 56
2020-03-28 17:00:00 13.9 6 Este 21 Nordeste 0 -- -- 47
2020-03-28 16:00:00 13.9 6 Este 25 Este 0 -- -- 46
2020-03-28 15:00:00 14.7 6 Nordeste 12 Norte 0 -- -- 40
2020-03-28 14:00:00 14 5 Norte 16 Noroeste 0 -- -- 42
2020-03-28 13:00:00 12.9 3 Nordeste 12 Nordeste 0 -- -- 43
2020-03-28 12:00:00 12.1 3 Sudoeste 12 Norte 0 -- -- 50
2020-03-28 11:00:00 10.7 4 Noroeste 12 Noroeste 0 -- -- 51
2020-03-28 10:00:00 8.5 3 Sudoeste 7 Sudoeste 0 -- -- 74
2020-03-28 09:00:00 2.3 0 Calma 2 Sudeste 0 -- -- 97
2020-03-28 08:00:00 -2.1 0 Calma 4 Sudeste 0 -- -- 97
2020-03-28 07:00:00 -2.4 0 Calma 3 Este 0 -- -- 96
2020-03-28 06:00:00 -2.1 0 Calma 4 Sudeste 0 -- -- 95
2020-03-28 05:00:00 -2.2 0 Calma 3 Este 0 -- -- 95
2020-03-28 04:00:00 -1.6 0 Calma 5 Norte 0 -- -- 94
2020-03-28 03:00:00 -1.2 3 Nordeste 5 Nordeste 0 -- -- 94
2020-03-28 02:00:00 -0.9 0 Calma 5 Norte 0 -- -- 94
2020-03-28 01:00:00 -0.7 0 Calma 4 Este 0 -- -- 93
2020-03-28 00:00:00 -0.2 0 Calma 4 Nordeste 0 -- -- 91
2020-03-27 23:00:00 0.4 0 Calma 4 Sudeste 0 -- -- 89
2020-03-27 22:00:00 1.3 0 Calma 3 Norte 0 -- -- 85
2020-03-27 21:00:00 3 0 Calma 4 Sudoeste 0 -- -- 80
2020-03-27 20:00:00 5.3 4 Sudoeste 19 Nordeste 0 -- -- 73
2020-03-27 19:00:00 7.9 8 Nordeste 19 Nordeste 0 -- -- 64
2020-03-27 18:00:00 9.6 6 Sudeste 21 Sudeste 0 -- -- 51
2020-03-27 17:00:00 10.8 7 Nordeste 19 Nordeste 0 -- -- 45
2020-03-27 16:00:00 10.7 7 Este 22 Nordeste 0 -- -- 45
2020-03-27 15:00:00 10.7 7 Sur 18 Nordeste 0 -- -- 49
2020-03-27 14:00:00 9.9 6 Este 16 Este 0 -- -- 52
2020-03-27 13:00:00 9.2 5 Este 17 Nordeste 0 -- -- 51
2020-03-27 12:00:00 7.9 8 Nordeste 15 Este 0 -- -- 53
2020-03-27 11:00:00 6.4 5 Este 15 Sudeste 0 -- -- 58
2020-03-27 10:00:00 4.4 8 Sudeste 15 Sudeste 0 -- -- 66
2020-03-27 09:00:00 0.8 4 Sudeste 9 Este 0 -- -- 85
2020-03-27 08:00:00 -3.7 0 Calma 5 Este 0 -- -- 94
2020-03-27 07:00:00 -3.9 0 Calma 5 Sudeste 0 -- -- 93
2020-03-27 06:00:00 -3.6 0 Calma 3 Nordeste 0 -- -- 92
2020-03-27 05:00:00 -2.6 0 Calma 5 Norte 0 -- -- 90
2020-03-27 04:00:00 -1.5 0 Calma 7 Este 0 -- -- 88
2020-03-27 03:00:00 -0.8 0 Calma 9 Oeste 0 -- -- 86
2020-03-27 02:00:00 0.4 4 Oeste 10 Noroeste 0 -- -- 85
2020-03-27 01:00:00 0.2 3 Sudoeste 17 Noroeste 0 -- -- 82
2020-03-27 00:00:00 0.1 9 Norte 23 Norte 0 -- -- 80
2020-03-26 23:00:00 0.1 11 Norte 22 Norte 0 -- -- 78
2020-03-26 22:00:00 0.6 9 Norte 24 Norte 0 -- -- 79
2020-03-26 21:00:00 1.3 6 Nordeste 22 Norte 0 -- -- 77
2020-03-26 20:00:00 2.3 7 Norte 21 Noroeste 0 -- -- 79
2020-03-26 19:00:00 2.9 5 Nordeste 27 Norte 0 -- -- 76
2020-03-26 18:00:00 4.5 10 Nordeste 27 Norte 0 -- -- 71
2020-03-26 17:00:00 6.7 12 Norte 29 Norte 0 -- -- 58
2020-03-26 16:00:00 8.3 16 Norte 33 Noroeste 0 -- -- 58
2020-03-26 15:00:00 6.1 11 Norte 31 Noroeste 0 -- -- 71
2020-03-26 14:00:00 5.5 13 Noroeste 32 Norte 0 -- -- 68
2020-03-26 13:00:00 4.3 15 Norte 33 Norte 0 -- -- 74
2020-03-26 12:00:00 4.3 16 Norte 33 Norte 0 -- -- 76
2020-03-26 11:00:00 5.4 15 Noroeste 35 Norte 0 -- -- 66
2020-03-26 10:00:00 4.2 13 Norte 32 Norte 0 -- -- 73
2020-03-26 09:00:00 3.2 8 Norte 22 Norte 0 -- -- 84
2020-03-26 08:00:00 2.6 7 Noroeste 18 Noroeste 0 -- -- 85
2020-03-26 07:00:00 2.4 7 Noroeste 17 Oeste 0 -- -- 85
2020-03-26 06:00:00 2.5 5 Noroeste 13 Noroeste 0 -- -- 84
2020-03-26 05:00:00 2.2 6 Norte 14 Norte 0 -- -- 82
2020-03-26 04:00:00 2.1 5 Norte 12 Noroeste 0 -- -- 80
2020-03-26 03:00:00 2.2 6 Norte 15 Noroeste 0 -- -- 80
2020-03-26 02:00:00 2.1 8 Noroeste 22 Noroeste 0 -- -- 83
2020-03-26 01:00:00 0.7 4 Sudoeste 21 Noroeste 0 -- -- 82
2020-03-26 00:00:00 0.2 5 Norte 14 Noroeste 0 -- -- 77
2020-03-25 23:00:00 1.3 4 Norte 17 Norte 0 -- -- 73
2020-03-25 22:00:00 2.3 5 Norte 19 Norte 0 -- -- 77
2020-03-25 21:00:00 3.6 7 Nordeste 22 Nordeste 0 -- -- 82
2020-03-25 20:00:00 5.6 3 Oeste 15 Nordeste 0 -- -- 68
2020-03-25 19:00:00 8.8 5 Norte 23 Noroeste 0 -- -- 58
2020-03-25 18:00:00 11.5 10 Noroeste 25 Noroeste 0 -- -- 52
2020-03-25 17:00:00 13 10 Noroeste 26 Norte 0 -- -- 41
2020-03-25 16:00:00 13.6 10 Norte 26 Noroeste 0 -- -- 41
2020-03-25 15:00:00 14 12 Noroeste 24 Oeste 0 -- -- 50
2020-03-25 14:00:00 14 10 Norte 24 Nordeste 0 -- -- 44
2020-03-25 13:00:00 13.2 10 Norte 23 Norte 0 -- -- 51
2020-03-25 12:00:00 12.5 9 Oeste 22 Norte 0 -- -- 57
2020-03-25 11:00:00 11.2 6 Norte 27 Norte 0 -- -- 62
2020-03-25 10:00:00 9.8 5 Nordeste 17 Nordeste 0 -- -- 70
2020-03-25 09:00:00 4.6 0 Calma 3 Este 0 -- -- 100
2020-03-25 08:00:00 0.1 0 Calma 3 Este 0 -- -- 98
2020-03-25 07:00:00 0.2 0 Calma 4 Nordeste 0 -- -- 97
2020-03-25 06:00:00 0.5 0 Calma 3 Este 0 -- -- 97
2020-03-25 05:00:00 0.4 0 Calma 4 Nordeste 0 -- -- 96
2020-03-25 04:00:00 0.9 2 Nordeste 4 Nordeste 0 -- -- 96
2020-03-25 03:00:00 1.5 0 Calma 6 Nordeste 0 -- -- 96
2020-03-25 02:00:00 1.9 0 Calma 5 Este 0 -- -- 94
2020-03-25 01:00:00 2.6 0 Calma 4 Este 0 -- -- 94
2020-03-25 00:00:00 3.1 0 Calma 3 Nordeste 0 -- -- 92
2020-03-24 23:00:00 4.1 0 Calma 3 Sudoeste 0 -- -- 90
2020-03-24 22:00:00 5.2 0 Calma 4 Sudeste 0 -- -- 86
2020-03-24 21:00:00 7.2 0 Calma 11 Nordeste 0 -- -- 79
2020-03-24 20:00:00 9.5 8 Este 17 Este 0 -- -- 73
2020-03-24 19:00:00 11.7 7 Nordeste 18 Norte 0 -- -- 72
2020-03-24 18:00:00 13.5 8 Sudeste 14 Nordeste 0 -- -- 60
2020-03-24 17:00:00 13.5 6 Este 19 Este 0 -- -- 57
2020-03-24 16:00:00 14.1 4 Este 21 Sudeste 0 -- -- 60
2020-03-24 15:00:00 13 6 Sudeste 22 Sudeste 0 -- -- 59
2020-03-24 14:00:00 12.9 9 Sudeste 27 Sudeste 0 -- -- 62
2020-03-24 13:00:00 12.9 12 Sudeste 24 Este 0 -- -- 59
2020-03-24 12:00:00 12.3 8 Sudeste 23 Sur 0 -- -- 65
2020-03-24 11:00:00 11.4 11 Este 23 Este 0 -- -- 72
2020-03-24 10:00:00 9.8 8 Este 17 Este 0 -- -- 79
2020-03-24 09:00:00 7.8 0 Calma 4 Sudoeste 0 -- -- 98
2020-03-24 08:00:00 5.3 0 Calma 4 Norte 0 -- -- 99
2020-03-24 07:00:00 5.4 0 Calma 5 Sudeste 0 -- -- 99
2020-03-24 06:00:00 5 0 Calma 6 Oeste 0 -- -- 99
2020-03-24 05:00:00 3.7 0 Calma 6 Norte 0 -- -- 97
2020-03-24 04:00:00 4.6 2 Sur 10 Este 0 -- -- 96
2020-03-24 03:00:00 5 0 Calma 8 Este 0 -- -- 95
2020-03-24 02:00:00 5.9 0 Calma 14 Sur 0 -- -- 94
2020-03-24 01:00:00 6.5 3 Sudeste 13 Sudeste 0 -- -- 94
2020-03-24 00:00:00 6.2 4 Sur 9 Sur 0 -- -- 92
2020-03-23 23:00:00 7.4 3 Sur 29 Sudeste 0 -- -- 89
2020-03-23 22:00:00 8.5 6 Sudeste 18 Sudeste 0 -- -- 85
2020-03-23 21:00:00 8.8 8 Este 21 Sudeste 0 -- -- 86
2020-03-23 20:00:00 9.3 5 Nordeste 13 Nordeste 0 -- -- 86
2020-03-23 19:00:00 10.1 5 Nordeste 22 Este 0 -- -- 82
2020-03-23 18:00:00 12.3 8 Este 21 Sudeste 0 -- -- 70
2020-03-23 17:00:00 12.4 10 Sudeste 22 Sudeste 0 -- -- 63
2020-03-23 16:00:00 13.3 7 Sudeste 20 Este 0 -- -- 63
2020-03-23 15:00:00 11.2 9 Este 19 Este 0 -- -- 70
2020-03-23 14:00:00 11 6 Sudeste 18 Sudeste 0 -- -- 70
2020-03-23 13:00:00 10.5 5 Este 15 Este 0 -- -- 73
2020-03-23 12:00:00 10.3 4 Nordeste 14 Este 0 -- -- 75
2020-03-23 11:00:00 10 8 Este 18 Este 0 -- -- 78
2020-03-23 10:00:00 7.8 4 Nordeste 10 Este 0 -- -- 90
2020-03-23 09:00:00 6.7 2 Este 7 Este 0 -- -- 94
2020-03-23 08:00:00 5.9 0 Calma 8 Nordeste 0 -- -- 97
2020-03-23 07:00:00 5.6 0 Calma 5 Nordeste 0 -- -- 98
2020-03-23 06:00:00 5.5 2 Este 12 Este 0 -- -- 99
2020-03-23 05:00:00 5 4 Este 12 Nordeste 0 -- -- 99
2020-03-23 04:00:00 3.7 0 Calma 6 Sudeste 0 -- -- 96
2020-03-23 03:00:00 4.2 0 Calma 4 Nordeste 0 -- -- 95
2020-03-23 02:00:00 4 0 Calma 4 Sudeste 0 -- -- 94
2020-03-23 01:00:00 4.7 0 Calma 4 Noroeste 0 -- -- 93
2020-03-23 00:00:00 5.8 0 Calma 12 Sudeste 0 -- -- 90
2020-03-22 23:00:00 6.2 3 Nordeste 17 Nordeste 0 -- -- 88
2020-03-22 22:00:00 7.3 4 Sudeste 14 Sudeste 0 -- -- 88
2020-03-22 21:00:00 7.6 8 Nordeste 19 Norte 0 -- -- 88
2020-03-22 20:00:00 8.7 8 Este 17 Nordeste 0 -- -- 83
2020-03-22 19:00:00 10.1 4 Oeste 23 Norte 0 -- -- 77
2020-03-22 18:00:00 11.3 12 Noroeste 35 Norte 0 -- -- 70
2020-03-22 17:00:00 13.1 17 Norte 31 Norte 0 -- -- 66
2020-03-22 16:00:00 14.7 9 Noroeste 31 Norte 0 -- -- 61
2020-03-22 15:00:00 13.6 9 Norte 26 Este 0 -- -- 62
2020-03-22 14:00:00 13.6 8 Este 25 Este 0 -- -- 58
2020-03-22 13:00:00 13 6 Este 18 Este 0 -- -- 63
2020-03-22 12:00:00 12.9 6 Este 13 Sudeste 0 -- -- 67
2020-03-22 11:00:00 11.7 4 Nordeste 14 Nordeste 0 -- -- 72
2020-03-22 10:00:00 9.5 0 Calma 5 Oeste 0 -- -- 86
2020-03-22 09:00:00 5 0 Calma 3 Nordeste 0 -- -- 100
2020-03-22 08:00:00 1.1 0 Calma 4 Nordeste 0 -- -- 98
2020-03-22 07:00:00 0.9 0 Calma 2 Este 0 -- -- 98
2020-03-22 06:00:00 1.3 0 Calma 4 Nordeste 0 -- -- 97
2020-03-22 05:00:00 1.7 0 Calma 6 Nordeste 0 -- -- 97
2020-03-22 04:00:00 1.9 0 Calma 5 Nordeste 0 -- -- 96
2020-03-22 03:00:00 2.3 3 Este 5 Sudeste 0 -- -- 96
2020-03-22 02:00:00 3 3 Nordeste 6 Norte 0 -- -- 96
2020-03-22 01:00:00 3.2 2 Nordeste 6 Nordeste 0 -- -- 96
2020-03-22 00:00:00 3.8 0 Calma 5 Norte 0 -- -- 94
2020-03-21 23:00:00 4.6 2 Nordeste 5 Norte 0 -- -- 93
2020-03-21 22:00:00 5.4 0 Calma 4 Nordeste 0 -- -- 89
2020-03-21 21:00:00 6.9 0 Calma 5 Sudeste 0 -- -- 85
2020-03-21 20:00:00 9.3 3 Sudeste 15 Este 0 -- -- 78
2020-03-21 19:00:00 11.6 9 Sudeste 17 Sudeste 0 -- -- 69
2020-03-21 18:00:00 13.6 4 Sudeste 14 Sudoeste 0 -- -- 64
2020-03-21 17:00:00 14.8 6 Oeste 14 Sudoeste 0 -- -- 64
2020-03-21 16:00:00 14.8 7 Oeste 18 Sudoeste 0 -- -- 65
2020-03-21 15:00:00 15 10 Sudoeste 18 Sudoeste 0 -- -- 63
2020-03-21 14:00:00 13.5 4 Sudeste 16 Este 0 -- -- 66
2020-03-21 13:00:00 12.7 6 Sur 19 Este 0 -- -- 69
2020-03-21 12:00:00 10.9 4 Sudeste 10 Sur 0 -- -- 75
2020-03-21 11:00:00 7.7 5 Sur 8 Sudoeste 0 -- -- 89
2020-03-21 10:00:00 5.5 0 Calma 6 Este 0 -- -- 97
2020-03-21 09:00:00 4 0 Calma 4 Sudeste 0 -- -- 100
2020-03-21 08:00:00 1.9 0 Calma 6 Sudeste 0 -- -- 99
2020-03-21 07:00:00 1.8 0 Calma 5 Sudeste 0 -- -- 98
2020-03-21 06:00:00 2.1 0 Calma 5 Este 0 -- -- 97
2020-03-21 05:00:00 2.7 0 Calma 2 Sudeste 0 -- -- 97
2020-03-21 04:00:00 3.3 0 Calma 4 Nordeste 0 -- -- 97
2020-03-21 03:00:00 3.5 0 Calma 3 Nordeste 0 -- -- 97
2020-03-21 02:00:00 3.7 0 Calma 2 Este 0 -- -- 96
2020-03-21 01:00:00 4.1 2 Este 4 Este 0 -- -- 96
2020-03-21 00:00:00 4.4 0 Calma 4 Este 0 -- -- 95
2020-03-20 23:00:00 4.8 0 Calma 4 Sudeste 0 -- -- 92
2020-03-20 22:00:00 6 0 Calma 5 Sur 0 -- -- 89
2020-03-20 21:00:00 7.5 2 Sur 10 Sudeste 0 -- -- 85
2020-03-20 20:00:00 8.8 4 Este 12 Este 0 -- -- 82
2020-03-20 19:00:00 9.7 3 Sudeste 15 Sudeste 0 -- -- 78
2020-03-20 18:00:00 10.8 4 Sudeste 15 Sudeste 0 -- -- 73
2020-03-20 17:00:00 12.4 5 Sudeste 18 Sudoeste 0 -- -- 66
2020-03-20 16:00:00 12.3 5 Sudoeste 26 Sudoeste 0 -- -- 64
2020-03-20 15:00:00 13.7 13 Sudoeste 26 Sudoeste 0 -- -- 58
2020-03-20 14:00:00 13.5 9 Sudoeste 21 Sudoeste 0 -- -- 59
2020-03-20 13:00:00 12.6 4 Oeste 14 Sudoeste 0 -- -- 63
2020-03-20 12:00:00 11.5 7 Sur 15 Sudeste 0 -- -- 61
2020-03-20 11:00:00 10 8 Sudoeste 13 Sudoeste 0 -- -- 64
2020-03-20 10:00:00 7.5 5 Este 17 Sudeste 0 -- -- 69
2020-03-20 09:00:00 4.1 0 Calma 5 Sudeste 0 -- -- 94
2020-03-20 08:00:00 1.7 0 Calma 4 Sudeste 0 -- -- 94
2020-03-20 07:00:00 1.7 0 Calma 4 Este 0 -- -- 93
2020-03-20 06:00:00 2.5 3 Este 4 Sudeste 0 -- -- 94
2020-03-20 05:00:00 2.8 0 Calma 5 Sudeste 0 -- -- 95
2020-03-20 04:00:00 2.5 0 Calma 4 Oeste 0 -- -- 95
2020-03-20 03:00:00 2.6 0 Calma 2 Norte 0 -- -- 94
2020-03-20 02:00:00 2.9 0 Calma 4 Este 0 -- -- 93
2020-03-20 01:00:00 3.3 0 Calma 4 Norte 0 -- -- 89
2020-03-20 00:00:00 4.1 0 Calma 5 Nordeste 0 -- -- 89
2020-03-19 23:00:00 4.8 0 Calma 5 Sudeste 0 -- -- 88
2020-03-19 22:00:00 6.4 0 Calma 7 Sur 0 -- -- 84
2020-03-19 21:00:00 7.9 3 Sur 9 Sudeste 0 -- -- 79
2020-03-19 20:00:00 9.6 3 Sudeste 12 Sudeste 0 -- -- 79
2020-03-19 19:00:00 11.5 9 Sudeste 16 Sudeste 0 -- -- 72
2020-03-19 18:00:00 13.6 7 Sudeste 17 Sudeste 0 -- -- 66
2020-03-19 17:00:00 15 10 Este 22 Sudeste 0 -- -- 57
2020-03-19 16:00:00 15.6 10 Este 24 Nordeste 0 -- -- 57
2020-03-19 15:00:00 16 11 Este 24 Este 0 -- -- 59
2020-03-19 14:00:00 15.2 9 Este 23 Este 0 -- -- 65
2020-03-19 13:00:00 14.4 10 Este 21 Este 0 -- -- 70
2020-03-19 12:00:00 12.6 6 Este 13 Este 0 -- -- 82
2020-03-19 11:00:00 9.7 0 Calma 10 Sur 0 -- -- 95
2020-03-19 10:00:00 7.7 3 Sur 9 Sur 0 -- -- 100
2020-03-19 09:00:00 4.8 0 Calma 5 Sur 0 -- -- 100
2020-03-19 08:00:00 3.9 0 Calma 3 Noroeste 0 -- -- 99
2020-03-19 07:00:00 4 0 Calma 3 Este 0 -- -- 99
2020-03-19 06:00:00 4.4 0 Calma 3 Norte 0 -- -- 99
2020-03-19 05:00:00 4.7 0 Calma 4 Este 0 -- -- 99
2020-03-19 04:00:00 5 0 Calma 4 Nordeste 0 -- -- 99
2020-03-19 03:00:00 5.2 0 Calma 4 Norte 0 -- -- 99
2020-03-19 02:00:00 5.4 0 Calma 4 Norte 0 -- -- 98
2020-03-19 01:00:00 5.8 2 Nordeste 4 Norte 0 -- -- 98
2020-03-19 00:00:00 6.1 0 Calma 4 Nordeste 0 -- -- 97
2020-03-18 23:00:00 6.7 0 Calma 4 Norte 0 -- -- 97
2020-03-18 22:00:00 7.4 0 Calma 5 Nordeste 0 -- -- 95
2020-03-18 21:00:00 8.5 0 Calma 3 Nordeste 0 -- -- 94
2020-03-18 20:00:00 9.9 2 Este 4 Este 0 -- -- 91
2020-03-18 19:00:00 11.8 0 Calma 11 Sudeste 0 -- -- 87
2020-03-18 18:00:00 13.1 5 Este 14 Este 0 -- -- 83
2020-03-18 17:00:00 14.1 6 Este 14 Este 0 -- -- 79
2020-03-18 16:00:00 16 8 Este 18 Este 0 -- -- 74
2020-03-18 15:00:00 16.1 6 Este 15 Este 0 -- -- 78
2020-03-18 14:00:00 15.1 5 Norte 9 Norte 0 -- -- 78
2020-03-18 13:00:00 12.9 5 Este 9 Sudeste 0 -- -- 86
2020-03-18 12:00:00 11.6 0 Calma 8 Noroeste 0 -- -- 95
2020-03-18 11:00:00 8.8 2 Oeste 5 Oeste 0 -- -- 100
2020-03-18 10:00:00 7.3 0 Calma 6 Oeste 0 -- -- 100
2020-03-18 09:00:00 6 0 Calma 3 Sudeste 0 -- -- 100
2020-03-18 08:00:00 5.4 2 Norte 4 Norte 0 -- -- 100
2020-03-18 07:00:00 5.2 0 Calma 5 Norte 0 -- -- 100
2020-03-18 06:00:00 4.5 0 Calma 4 Nordeste 0 -- -- 100
2020-03-18 05:00:00 3.4 0 Calma 5 Nordeste 0 -- -- 100
2020-03-18 04:00:00 3.1 0 Calma 4 Nordeste 0 -- -- 99
2020-03-18 03:00:00 4 0 Calma 5 Norte 0 -- -- 100
2020-03-18 02:00:00 4.5 2 Nordeste 5 Nordeste 0 -- -- 100
2020-03-18 01:00:00 4.7 0 Calma 6 Sur 0 -- -- 100
2020-03-18 00:00:00 5.1 0 Calma 6 Este 0 -- -- 100
2020-03-17 23:00:00 5.4 0 Calma 5 Sudeste 0 -- -- 99
2020-03-17 22:00:00 6.4 0 Calma 4 Nordeste 0 -- -- 99
2020-03-17 21:00:00 7.6 0 Calma 9 Este 0 -- -- 100
2020-03-17 20:00:00 7.5 3 Sudeste 13 Sudeste 0 -- -- 100
2020-03-17 19:00:00 7.5 3 Sudeste 11 Sur 0 -- -- 100
2020-03-17 18:00:00 7.3 3 Oeste 8 Sur 0 -- -- 100
2020-03-17 17:00:00 7 3 Sudeste 8 Este 0 -- -- 100
2020-03-17 16:00:00 6.7 2 Este 12 Este 0.2 -- -- 100
2020-03-17 15:00:00 6.5 7 Este 16 Este 0.2 -- -- 100
2020-03-17 14:00:00 6.6 5 Nordeste 20 Este 0 -- -- 100
2020-03-17 13:00:00 6.2 8 Este 21 Este 0 -- -- 100
2020-03-17 12:00:00 6.1 9 Este 20 Este 0.2 -- -- 100
2020-03-17 11:00:00 5.8 6 Este 15 Sudeste 0 -- -- 100
2020-03-17 10:00:00 5.6 4 Nordeste 15 Norte 0 -- -- 100
2020-03-17 09:00:00 5 6 Norte 18 Noroeste 0.2 -- -- 100
2020-03-17 08:00:00 4.9 5 Noroeste 21 Noroeste 0.2 -- -- 100
2020-03-17 07:00:00 4.7 9 Noroeste 30 Norte 1 -- -- 100
2020-03-17 06:00:00 4.7 13 Noroeste 30 Noroeste 0.6 -- -- 100
2020-03-17 05:00:00 4.6 13 Noroeste 32 Norte 0.2 -- -- 100
2020-03-17 04:00:00 4.6 16 Noroeste 32 Noroeste 0 -- -- 100
2020-03-17 03:00:00 4.5 10 Noroeste 30 Noroeste 0 -- -- 100
2020-03-17 02:00:00 4.3 10 Norte 35 Norte 0.2 -- -- 100
2020-03-17 01:00:00 4.3 17 Noroeste 40 Noroeste 0.6 -- -- 100
2020-03-17 00:00:00 4.2 16 Noroeste 35 Norte 0.6 -- -- 99
2020-03-16 23:00:00 4.1 14 Noroeste 44 Norte 0.6 -- -- 100
2020-03-16 22:00:00 3.8 17 Noroeste 42 Noroeste 0.2 -- -- 99
2020-03-16 21:00:00 3.8 22 Noroeste 51 Noroeste 0.4 -- -- 99
2020-03-16 20:00:00 3.8 24 Norte 51 Norte 0.2 -- -- 99
2020-03-16 19:00:00 4.1 26 Noroeste 58 Norte 0 -- -- 99
2020-03-16 18:00:00 4.3 22 Noroeste 51 Noroeste 0.2 -- -- 98
2020-03-16 17:00:00 4.2 23 Noroeste 48 Noroeste 0.4 -- -- 98
2020-03-16 16:00:00 4.2 19 Noroeste 52 Noroeste 0 -- -- 98
2020-03-16 15:00:00 4 23 Noroeste 54 Noroeste 0.4 -- -- 98
2020-03-16 14:00:00 3.6 27 Norte 49 Noroeste 1.4 -- -- 99
2020-03-16 13:00:00 2.8 28 Norte 48 Norte 2.6 -- -- 98
2020-03-16 12:00:00 2.5 24 Norte 50 Norte 1.8 -- -- 98
2020-03-16 11:00:00 2.2 31 Norte 59 Norte 3 -- -- 98
2020-03-16 10:00:00 1.5 25 Norte 39 Norte 2.8 -- -- 98
2020-03-16 09:00:00 1.2 17 Norte 34 Noroeste 2 -- -- 97
2020-03-16 08:00:00 1 15 Norte 33 Norte 1.2 -- -- 96
2020-03-16 07:00:00 1.1 15 Norte 33 Norte 1.2 -- -- 96
2020-03-16 06:00:00 1.1 15 Norte 32 Nordeste 1 -- -- 97
2020-03-16 05:00:00 0.7 15 Nordeste 32 Norte 1 -- -- 97
2020-03-16 04:00:00 0.8 9 Norte 29 Norte 1 -- -- 96
2020-03-16 03:00:00 1.1 19 Norte 38 Noroeste 1.6 -- -- 97
2020-03-16 02:00:00 1.7 13 Norte 46 Norte 0.4 -- -- 96
2020-03-16 01:00:00 2.1 13 Norte 39 Norte 0 -- -- 97
2020-03-16 00:00:00 2.3 12 Norte 24 Noroeste 0.2 -- -- 97
2020-03-15 23:00:00 2.7 10 Nordeste 27 Nordeste 1.6 -- -- 96
2020-03-15 22:00:00 3.6 9 Nordeste 30 Norte 1 -- -- 95
2020-03-15 21:00:00 4.9 10 Nordeste 28 Norte 1.6 -- -- 96
2020-03-15 20:00:00 5.6 10 Nordeste 22 Norte 2.4 -- -- 95
2020-03-15 19:00:00 5.9 3 Noroeste 29 Este 4.4 -- -- 94
2020-03-15 18:00:00 7.4 13 Norte 40 Nordeste 0 -- -- 89
2020-03-15 17:00:00 13.5 20 Nordeste 37 Este 0 -- -- 68
2020-03-15 16:00:00 17.4 8 Sur 23 Sur 0 -- -- 46
2020-03-15 15:00:00 16.9 8 Sur 24 Sur 0 -- -- 46
2020-03-15 14:00:00 15.3 10 Sur 27 Sur 0 -- -- 49
2020-03-15 13:00:00 14.2 10 Sur 27 Sudoeste 0 -- -- 50
2020-03-15 12:00:00 14.1 11 Sur 27 Sur 0 -- -- 49
2020-03-15 11:00:00 12.8 14 Sudoeste 30 Sudoeste 0 -- -- 44
2020-03-15 10:00:00 11 18 Sudoeste 32 Sudoeste 0 -- -- 47
2020-03-15 09:00:00 9.1 12 Sudoeste 22 Sur 0 -- -- 53
2020-03-15 08:00:00 7.1 12 Sudoeste 26 Sudoeste 0 -- -- 57
2020-03-15 07:00:00 6.1 10 Sudoeste 27 Sudoeste 0 -- -- 62
2020-03-15 06:00:00 7.2 15 Sudoeste 29 Sudoeste 0 -- -- 55
2020-03-15 05:00:00 3.1 13 Sudoeste 23 Sudoeste 0 -- -- 78
2020-03-15 04:00:00 0.2 2 Nordeste 4 Nordeste 0 -- -- 92
2020-03-15 03:00:00 0.7 0 Calma 4 Nordeste 0 -- -- 94
2020-03-15 02:00:00 1.2 0 Calma 5 Nordeste 0 -- -- 95
2020-03-15 01:00:00 1.3 0 Calma 5 Nordeste 0 -- -- 95
2020-03-15 00:00:00 1.7 0 Calma 3 Nordeste 0 -- -- 93
2020-03-14 23:00:00 2.5 0 Calma 4 Nordeste 0 -- -- 93
2020-03-14 22:00:00 3.2 0 Calma 3 Este 0 -- -- 90
2020-03-14 21:00:00 4.6 0 Calma 6 Norte 0 -- -- 86
2020-03-14 20:00:00 7 0 Calma 4 Sudeste 0 -- -- 78
2020-03-14 19:00:00 10.4 3 Este 10 Nordeste 0 -- -- 66
2020-03-14 18:00:00 12.8 8 Este 15 Este 0 -- -- 57
2020-03-14 17:00:00 13.5 4 Nordeste 13 Nordeste 0 -- -- 56
2020-03-14 16:00:00 13.6 5 Este 13 Este 0 -- -- 56
2020-03-14 15:00:00 12.3 3 Nordeste 15 Este 0 -- -- 64
2020-03-14 14:00:00 11.4 3 Nordeste 11 Noroeste 0 -- -- 59
2020-03-14 13:00:00 10.3 6 Norte 17 Nordeste 0 -- -- 61
2020-03-14 12:00:00 8.6 7 Este 18 Este 0 -- -- 67
2020-03-14 11:00:00 7.3 5 Este 14 Nordeste 0 -- -- 78
2020-03-14 10:00:00 5.2 0 Calma 4 Norte 0.2 -- -- 93
2020-03-14 09:00:00 0.1 0 Calma 3 Nordeste 0 -- -- 100
2020-03-14 08:00:00 -2.5 0 Calma 3 Nordeste 0 -- -- 98
2020-03-14 07:00:00 -2.5 0 Calma 5 Norte 0 -- -- 98
2020-03-14 06:00:00 -3.2 0 Calma 3 Sudeste 0 -- -- 97
2020-03-14 05:00:00 -3.1 0 Calma 3 Sudeste 0 -- -- 97
2020-03-14 04:00:00 -3.2 0 Calma 4 Norte 0 -- -- 95
2020-03-14 03:00:00 -2.8 2 Sudeste 5 Este 0 -- -- 96
2020-03-14 02:00:00 -2.7 0 Calma 5 Sudeste 0 -- -- 95
2020-03-14 01:00:00 -1.8 0 Calma 3 Este 0 -- -- 95
2020-03-14 00:00:00 -1.4 0 Calma 4 Este 0 -- -- 96
2020-03-13 23:00:00 -0.5 0 Calma 5 Nordeste 0 -- -- 95
2020-03-13 22:00:00 0.2 0 Calma 6 Oeste 0 -- -- 94
2020-03-13 21:00:00 1.2 2 Nordeste 5 Noroeste 0 -- -- 91
2020-03-13 20:00:00 3.6 0 Calma 9 Noroeste 0 -- -- 88
2020-03-13 19:00:00 5.2 4 Oeste 16 Norte 0 -- -- 83
2020-03-13 18:00:00 6.9 7 Noroeste 23 Norte 0 -- -- 81
2020-03-13 17:00:00 7 7 Noroeste 24 Norte 0 -- -- 80
2020-03-13 16:00:00 5.6 5 Noroeste 27 Norte 0 -- -- 88
2020-03-13 15:00:00 5.5 7 Noroeste 20 Noroeste 0 -- -- 92
2020-03-13 14:00:00 5.8 4 Sudeste 17 Sudeste 0 -- -- 93
2020-03-13 13:00:00 5.7 5 Noroeste 19 Sur 0 -- -- 96
2020-03-13 12:00:00 5.3 8 Oeste -- -- -- -- -- 96
2020-03-13 11:00:00 -- -- -- -- -- 0 -- -- --
2020-03-13 10:00:00 -- -- -- -- -- 0 -- -- --
2020-03-13 09:00:00 -- -- -- -- -- 0 -- -- --
2020-03-13 08:00:00 -- -- -- -- -- 0 -- -- --
2020-03-13 07:00:00 -- -- -- -- -- 0 -- -- --
2020-03-13 06:00:00 -- -- -- -- -- 0 -- -- --
2020-03-13 05:00:00 -- -- -- -- -- 0 -- -- --
2020-03-13 04:00:00 -- -- -- -- -- 0 -- -- --
2020-03-13 03:00:00 -- -- -- -- -- 0 -- -- --
2020-03-13 02:00:00 -- -- -- -- -- 0 -- -- --
2020-03-13 01:00:00 -- -- -- -- -- 0 -- -- --
2020-03-13 00:00:00 -- -- -- -- -- 0 -- -- --
2020-03-12 23:00:00 -- -- -- -- -- 0 -- -- --
2020-03-12 22:00:00 -- -- -- -- -- 0 -- -- --
2020-03-12 21:00:00 -- -- -- -- -- 0 -- -- --
2020-03-12 20:00:00 -- -- -- -- -- 0 -- -- --
2020-03-12 19:00:00 -- -- -- -- -- 0 -- -- --
2020-03-12 18:00:00 -- -- -- -- -- 0 -- -- --
2020-03-12 17:00:00 -- -- -- -- -- 0 -- -- --
2020-03-12 16:00:00 -- -- -- -- -- 0 -- -- --
2020-03-12 15:00:00 -- -- -- -- -- 0 -- -- --
2020-03-12 14:00:00 -- -- -- -- -- 0 -- -- --
2020-03-12 13:00:00 -- -- -- -- -- 0 -- -- --
2020-03-12 12:00:00 -- -- -- -- -- -- -- -- --
2020-03-12 11:00:00 -- -- -- -- -- -- -- -- --
2020-03-12 10:00:00 -- -- -- -- -- -- -- -- --
2020-03-12 09:00:00 -- -- -- -- -- -- -- -- --
2020-03-12 08:00:00 -- -- -- -- -- -- -- -- --
2020-03-12 07:00:00 -- -- -- -- -- -- -- -- --
2020-03-12 06:00:00 -- -- -- -- -- -- -- -- --
2020-03-12 05:00:00 -- -- -- -- -- -- -- -- --
2020-03-12 04:00:00 -- -- -- -- -- -- -- -- --
2020-03-12 03:00:00 -- -- -- -- -- -- -- -- --
2020-03-12 02:00:00 -- -- -- -- -- -- -- -- --
2020-03-12 01:00:00 -- -- -- -- -- -- -- -- --
2020-03-12 00:00:00 -- -- -- -- -- -- -- -- --
2020-03-11 23:00:00 -- -- -- -- -- -- -- -- --
2020-03-11 22:00:00 -- -- -- -- -- -- -- -- --
2020-03-11 21:00:00 -- -- -- -- -- -- -- -- --
2020-03-11 20:00:00 -- -- -- -- -- -- -- -- --
2020-03-11 19:00:00 -- -- -- -- -- -- -- -- --
2020-03-11 18:00:00 -- -- -- -- -- -- -- -- --
2020-03-11 17:00:00 -- -- -- -- -- -- -- -- --
2020-03-11 16:00:00 -- -- -- -- -- -- -- -- --
2020-03-11 15:00:00 -- -- -- -- -- -- -- -- --
2020-03-11 14:00:00 -- -- -- -- -- -- -- -- --
2020-03-11 13:00:00 -- -- -- -- -- -- -- -- --
2020-03-11 12:00:00 -- -- -- -- -- -- -- -- --
2020-03-11 11:00:00 -- -- -- -- -- 0 -- -- --
2020-03-11 10:00:00 -- -- -- -- -- 0 -- -- --
2020-03-11 09:00:00 -- -- -- -- -- 0 -- -- --
2020-03-11 08:00:00 -- -- -- -- -- 0 -- -- --
2020-03-11 07:00:00 1.5 3 Este 6 Nordeste 0 -- -- 98
2020-03-11 06:00:00 1.6 0 Calma 5 Nordeste 0 -- -- 97
2020-03-11 05:00:00 2.3 2 Este 5 Nordeste 0 -- -- 97
2020-03-11 04:00:00 2.8 3 Nordeste 8 Nordeste 0 -- -- 95
2020-03-11 03:00:00 3 4 Nordeste 6 Nordeste 0 -- -- 95
2020-03-11 02:00:00 3.4 3 Este 5 Nordeste 0 -- -- 94
2020-03-11 01:00:00 4 4 Nordeste 6 Nordeste 0 -- -- 94
2020-03-11 00:00:00 4.8 0 Calma 4 Este 0 -- -- 93
2020-03-10 23:00:00 5.8 3 Nordeste 5 Norte 0 -- -- 91
2020-03-10 22:00:00 6.7 4 Nordeste 6 Nordeste 0 -- -- 88
2020-03-10 21:00:00 8.7 3 Norte 8 Nordeste 0 -- -- 81
2020-03-10 20:00:00 11.5 4 Este 12 Este 0 -- -- 75
2020-03-10 19:00:00 15.3 3 Este 12 Sudoeste 0 -- -- 61
2020-03-10 18:00:00 18.1 8 Sudoeste 16 Sudoeste 0 -- -- 48
2020-03-10 17:00:00 19 9 Oeste 18 Oeste 0 -- -- 48
2020-03-10 16:00:00 18.2 8 Oeste 26 Oeste 0 -- -- 47
2020-03-10 15:00:00 17.2 9 Noroeste 19 Noroeste 0 -- -- 53
2020-03-10 14:00:00 16.1 7 Sur 22 Sudoeste 0 -- -- 52
2020-03-10 13:00:00 14.8 9 Sudoeste -- -- 0 -- -- 56
2020-03-10 12:00:00 -- -- -- -- -- 0 -- -- --
2020-03-10 11:00:00 -- -- -- -- -- 0 -- -- --
2020-03-10 10:00:00 -- -- -- -- -- 0 -- -- --
2020-03-10 09:00:00 -- 3 Sudeste -- -- 0 -- -- --
2020-03-10 08:00:00 -- -- -- -- -- 0 -- -- --
2020-03-10 07:00:00 -- -- -- -- -- -- -- -- --
2020-03-10 06:00:00 -- -- -- -- -- -- -- -- --
2020-03-10 05:00:00 -- -- -- -- -- -- -- -- --
2020-03-10 04:00:00 -- -- -- -- -- -- -- -- --
2020-03-10 03:00:00 -- -- -- -- -- -- -- -- --
2020-03-10 02:00:00 -- -- -- -- -- -- -- -- --
2020-03-10 01:00:00 -- -- -- -- -- -- -- -- --
2020-03-10 00:00:00 -- -- -- -- -- -- -- -- --
2020-03-09 23:00:00 -- -- -- -- -- -- -- -- --
2020-03-09 22:00:00 1.7 0 Calma 7 Nordeste 0 -- -- 90
2020-03-09 21:00:00 -- -- -- -- -- 0 -- -- --
2020-03-09 20:00:00 4.5 2 Oeste 14 Norte 0 -- -- 80
2020-03-09 19:00:00 6.1 8 Norte 22 Noroeste 0 -- -- 74
2020-03-09 18:00:00 7.7 10 Noroeste 25 Noroeste 0 -- -- 71
2020-03-09 17:00:00 8.7 14 Noroeste 30 Norte 0 -- -- 67
2020-03-09 16:00:00 7.7 12 Noroeste 27 Noroeste 0 -- -- 70
2020-03-09 15:00:00 7.9 16 Noroeste 27 Noroeste 0 -- -- 71
2020-03-09 14:00:00 -- -- -- -- -- 0 -- -- --
2020-03-09 13:00:00 -- -- -- -- -- 0 -- -- --
2020-03-09 12:00:00 -- -- -- -- -- 0 -- -- --
2020-03-09 11:00:00 -- -- -- -- -- 0 -- -- --
2020-03-09 10:00:00 -- -- -- -- -- 0 -- -- --
2020-03-09 09:00:00 -- -- -- -- -- 0 -- -- --
2020-03-09 08:00:00 -- -- -- -- -- 0 -- -- --
2020-03-09 07:00:00 -- -- -- -- -- 0 -- -- --
2020-03-09 06:00:00 -- -- -- -- -- 0 -- -- --
2020-03-09 05:00:00 -- -- -- -- -- 0 -- -- --
2020-03-09 04:00:00 -- -- -- -- -- 0 -- -- --
2020-03-09 03:00:00 -- -- -- -- -- 0 -- -- --
2020-03-09 02:00:00 -- -- -- -- -- 0 -- -- --
2020-03-09 01:00:00 -- -- -- -- -- 0 -- -- --
2020-03-09 00:00:00 -- -- -- -- -- 0 -- -- --
2020-03-08 23:00:00 -- -- -- -- -- 0 -- -- --
2020-03-08 22:00:00 -- -- -- -- -- 0 -- -- --
2020-03-08 21:00:00 -- -- -- -- -- 0 -- -- --
2020-03-08 20:00:00 -- -- -- -- -- 0 -- -- --
2020-03-08 19:00:00 10.1 6 Este 19 Este 0 -- -- 80
2020-03-08 18:00:00 11.3 5 Sudoeste 18 Sur 0 -- -- 69
2020-03-08 17:00:00 12 6 Oeste 19 Sur 0 -- -- 66
2020-03-08 16:00:00 12.9 12 Sudoeste 23 Sur 0 -- -- 62
2020-03-08 15:00:00 12.9 6 Sudoeste 23 Sudoeste 0 -- -- 67
2020-03-08 14:00:00 11 10 Sudoeste 24 Sudoeste 0 -- -- 72
2020-03-08 13:00:00 10.8 8 Sudoeste -- -- 0 -- -- 71
2020-03-08 12:00:00 8.4 9 Sur 19 Sudoeste 0 -- -- 79
2020-03-08 11:00:00 7.7 8 Sur 17 Sudoeste 0 -- -- 82
2020-03-08 10:00:00 5.7 4 Sur 24 Sudoeste 0 -- -- 85
2020-03-08 09:00:00 4.6 3 Este 16 Oeste 0 -- -- 89
2020-03-08 08:00:00 3.1 3 Sur 21 Sudoeste 0 -- -- 92
2020-03-08 07:00:00 3.1 12 Sudoeste 30 Sudoeste 0 -- -- 97
2020-03-08 06:00:00 1.4 0 Calma 8 Sudeste 0 -- -- 97
2020-03-08 05:00:00 1.8 6 Este 9 Este 0 -- -- 99
2020-03-08 04:00:00 1.9 5 Este 9 Este 0 -- -- 100
2020-03-08 03:00:00 0.7 4 Este 10 Nordeste 0 -- -- 98
2020-03-08 02:00:00 1.4 4 Nordeste 7 Nordeste 0 -- -- 100
2020-03-08 01:00:00 -0.1 2 Este 8 Nordeste 0 -- -- 99
2020-03-08 00:00:00 0 0 Calma 7 Nordeste 0 -- -- 97
2020-03-07 23:00:00 0.3 3 Nordeste 6 Nordeste 0 -- -- 97
2020-03-07 22:00:00 0.8 3 Este 5 Nordeste 0 -- -- 96
2020-03-07 21:00:00 2.1 0 Calma 7 Nordeste 0 -- -- 95
2020-03-07 20:00:00 3.6 2 Sudoeste 4 Nordeste 0 -- -- 91
2020-03-07 19:00:00 6.2 3 Sudeste 6 Sudeste 0 -- -- 85
2020-03-07 18:00:00 8.1 3 Oeste 9 Norte 0 -- -- 79
2020-03-07 17:00:00 8.3 4 Oeste 18 Noroeste 0 -- -- 78
2020-03-07 16:00:00 8.7 10 Noroeste 18 Noroeste 0 -- -- 79
2020-03-07 15:00:00 8.5 11 Noroeste 22 Norte 0 -- -- 81
2020-03-07 14:00:00 7.2 11 Norte 26 Norte 0 -- -- 88
2020-03-07 13:00:00 6 8 Noroeste 19 Norte 0 -- -- 94
2020-03-07 12:00:00 5.6 6 Noroeste 17 Norte 0 -- -- 97
2020-03-07 11:00:00 4.7 6 Noroeste 15 Noroeste 0 -- -- 98
2020-03-07 10:00:00 4.4 6 Oeste 16 Oeste 0 -- -- 98
2020-03-07 09:00:00 3.9 9 Noroeste 23 Norte 0 -- -- 97
2020-03-07 08:00:00 3.4 10 Noroeste 22 Noroeste 0.2 -- -- 99
2020-03-07 07:00:00 3.2 3 Noroeste 12 Norte 0.4 -- -- 98
2020-03-07 06:00:00 3.3 5 Noroeste 27 Norte 0 -- -- 97
2020-03-07 05:00:00 2.9 13 Norte 33 Norte 0 -- -- 96
2020-03-07 04:00:00 2.5 13 Noroeste 28 Noroeste 0.4 -- -- 99
2020-03-07 03:00:00 1.6 6 Norte 14 Norte 0.2 -- -- 97
2020-03-07 02:00:00 1.8 9 Noroeste 28 Norte 0 -- -- 93
2020-03-07 01:00:00 1.4 18 Noroeste 39 Noroeste 0 -- -- 92
2020-03-07 00:00:00 1.3 13 Noroeste 32 Noroeste 0.4 -- -- 96
2020-03-06 23:00:00 1.2 8 Noroeste 19 Norte 0 -- -- 97
2020-03-06 22:00:00 1.1 6 Norte 17 Norte 0.2 -- -- 97
2020-03-06 21:00:00 1 8 Noroeste 36 Norte 0.2 -- -- 96
2020-03-06 20:00:00 0.8 10 Noroeste 31 Noroeste 0.2 -- -- 95
2020-03-06 19:00:00 0.7 19 Noroeste 40 Norte 0.2 -- -- 95
2020-03-06 18:00:00 0.4 18 Noroeste -- -- -- -- -- 96
2020-03-06 17:00:00 -- -- -- -- -- -- -- -- --
2020-03-06 16:00:00 -- -- -- -- -- -- -- -- --
2020-03-06 15:00:00 1.1 16 Noroeste 36 Noroeste 0.8 -- -- 95
2020-03-06 14:00:00 1.6 12 Noroeste 30 Noroeste 1.2 -- -- 92
2020-03-06 13:00:00 0.6 15 Noroeste -- -- 0.8 -- -- 95
2020-03-06 12:00:00 1.1 11 Noroeste 23 Noroeste 1.4 -- -- 96
2020-03-06 11:00:00 0.2 11 Oeste 50 Norte 1.4 -- -- 96
2020-03-06 10:00:00 0 12 Oeste 32 Oeste 2.4 -- -- 97
2020-03-06 09:00:00 0.2 16 Noroeste 43 Noroeste 1.6 -- -- 97
2020-03-06 08:00:00 0.6 24 Noroeste 57 Noroeste 0 -- -- 93
2020-03-06 07:00:00 2.2 27 Noroeste 58 Noroeste 0 -- -- 77
2020-03-06 06:00:00 2.6 22 Noroeste 37 Noroeste 0 -- -- 85
2020-03-06 05:00:00 2.9 13 Noroeste 30 Noroeste 0 -- -- 87
2020-03-06 04:00:00 3.1 10 Oeste 22 Oeste 0 -- -- 84
2020-03-06 03:00:00 3.1 10 Oeste 23 Oeste 0 -- -- 80
2020-03-06 02:00:00 2.7 7 Sudoeste 22 Sur 0 -- -- 84
2020-03-06 01:00:00 2.6 14 Sudoeste 24 Sur 0 -- -- 86
2020-03-06 00:00:00 2.3 12 Oeste 19 Oeste 0 -- -- 87
2020-03-05 23:00:00 2.7 7 Noroeste 27 Noroeste 0 -- -- 85
2020-03-05 22:00:00 3.4 15 Noroeste 37 Noroeste 0 -- -- 82
2020-03-05 21:00:00 3.5 17 Noroeste 38 Noroeste 0 -- -- 84
2020-03-05 20:00:00 3.6 14 Noroeste 40 Noroeste 0 -- -- 87
2020-03-05 19:00:00 4.4 21 Noroeste 40 Noroeste 0 -- -- 78
2020-03-05 18:00:00 6.2 22 Noroeste 48 Oeste 0 -- -- 77
2020-03-05 17:00:00 7.5 25 Noroeste 48 Noroeste 0 -- -- 74
2020-03-05 16:00:00 7.7 21 Noroeste 50 Oeste 0 -- -- 73
2020-03-05 15:00:00 8 26 Noroeste 46 Noroeste 0 -- -- 78
2020-03-05 14:00:00 8.3 11 Noroeste 41 Noroeste 0.4 -- -- 86
2020-03-05 13:00:00 9.9 15 Oeste 40 Noroeste 0 -- -- 72
2020-03-05 12:00:00 9.7 17 Noroeste 45 Oeste 0 -- -- 77
2020-03-05 11:00:00 8.9 17 Noroeste 40 Noroeste 0 -- -- 77
2020-03-05 10:00:00 8.7 8 Sur 40 Sur 0.8 -- -- 95
2020-03-05 09:00:00 8.9 13 Sur 36 Noroeste 0.4 -- -- 94
2020-03-05 08:00:00 9.2 9 Nordeste 37 Noroeste 0.6 -- -- 93
2020-03-05 07:00:00 9.8 7 Norte 42 Sudoeste 0.2 -- -- 89
2020-03-05 06:00:00 10.1 3 Nordeste 40 Sudeste 0 -- -- 86
2020-03-05 05:00:00 10.3 10 Sudoeste 75 Sur 0 -- -- 89
2020-03-05 04:00:00 10.5 33 Sur 76 Oeste 0 -- -- 87
2020-03-05 03:00:00 10.2 12 Sur 41 Sur 0 -- -- 88
2020-03-05 02:00:00 10.1 11 Sur 41 Sur 0 -- -- 88
2020-03-05 01:00:00 10.3 20 Sudoeste 44 Sudoeste 0 -- -- 86
2020-03-05 00:00:00 10.3 22 Sudoeste 56 Sur 0 -- -- 86
2020-03-04 23:00:00 10.8 14 Sur 44 Sur 0 -- -- 83
2020-03-04 22:00:00 11 13 Sudoeste 28 Oeste 0 -- -- 82
2020-03-04 21:00:00 11.5 9 Oeste 41 Oeste 0 -- -- 80
2020-03-04 20:00:00 12 6 Norte 21 Noroeste 0 -- -- 77
2020-03-04 19:00:00 12.6 8 Sur 21 Sudoeste 0 -- -- 73
2020-03-04 18:00:00 13.2 8 Sur 26 Sur 0 -- -- 69
2020-03-04 17:00:00 13.9 17 Sur 36 Sudoeste 0 -- -- 65
2020-03-04 16:00:00 14 12 Sudoeste 26 Sudoeste 0 -- -- 69
2020-03-04 15:00:00 14.4 14 Sudoeste 31 Sudoeste 0 -- -- 70
2020-03-04 14:00:00 14.8 13 Sudoeste 35 Sur 0 -- -- 67
2020-03-04 13:00:00 13.9 9 Sur 28 Sudoeste 0 -- -- 75
2020-03-04 12:00:00 13.1 6 Sudoeste 25 Sudoeste 0 -- -- 80
2020-03-04 11:00:00 11 8 Sudoeste 17 Sudoeste 0 -- -- 89
2020-03-04 10:00:00 10 6 Sudoeste 35 Oeste 0 -- -- 89
2020-03-04 09:00:00 9.4 21 Oeste 33 Sudoeste 0 -- -- 93
2020-03-04 08:00:00 8.7 19 Oeste 36 Sudoeste 0 -- -- 96
2020-03-04 07:00:00 8.3 19 Sudoeste 36 Oeste 0 -- -- 97
2020-03-04 06:00:00 7.8 15 Sudoeste 35 Oeste 0 -- -- 97
2020-03-04 05:00:00 7.1 8 Oeste 26 Oeste 1 -- -- 97
2020-03-04 04:00:00 6.9 9 Sudoeste 25 Oeste 0 -- -- 90
2020-03-04 03:00:00 7.4 12 Sudoeste 31 Sudoeste 0 -- -- 83
2020-03-04 02:00:00 7 12 Sudoeste 25 Sudoeste 0 -- -- 86
2020-03-04 01:00:00 6.9 16 Oeste 26 Oeste 0 -- -- 88
2020-03-04 00:00:00 5.9 8 Oeste 14 Oeste 0 -- -- 94
2020-03-03 23:00:00 5.5 3 Este 8 Este 0 -- -- 94
2020-03-03 22:00:00 6.2 0 Calma 9 Oeste 0 -- -- 88
2020-03-03 21:00:00 7.1 3 Noroeste 30 Noroeste 0 -- -- 88
2020-03-03 20:00:00 7.6 19 Noroeste 33 Oeste 0 -- -- 84
2020-03-03 19:00:00 8 15 Noroeste 36 Noroeste 0 -- -- 81
2020-03-03 18:00:00 8.9 22 Noroeste 46 Noroeste 0 -- -- 77
2020-03-03 17:00:00 9.9 23 Noroeste 51 Oeste 0 -- -- 76
2020-03-03 16:00:00 11.6 30 Noroeste 54 Noroeste 0 -- -- 70
2020-03-03 15:00:00 13.3 31 Noroeste 64 Noroeste 0 -- -- 65
2020-03-03 14:00:00 14.2 20 Noroeste 46 Oeste 0 -- -- 67
2020-03-03 13:00:00 13 20 Oeste 51 Sudoeste 0 -- -- 70
2020-03-03 12:00:00 10.6 19 Sudoeste 46 Noroeste 0 -- -- 80
2020-03-03 11:00:00 8.1 21 Oeste 60 Oeste 0 -- -- 84
2020-03-03 10:00:00 6.1 22 Oeste 69 Oeste 0 -- -- 91
2020-03-03 09:00:00 3.9 16 Oeste 52 Oeste 0.4 -- -- 97
2020-03-03 08:00:00 2.3 16 Sur 45 Sur 1.2 -- -- 96
2020-03-03 07:00:00 1.3 10 Sur 31 Oeste 4 -- -- 96
2020-03-03 06:00:00 1.7 10 Sudoeste 28 Oeste 2.4 -- -- 94
2020-03-03 05:00:00 2.4 12 Oeste 41 Noroeste 0 -- -- 90
2020-03-03 04:00:00 2.4 10 Oeste 35 Oeste 0 -- -- 85
2020-03-03 03:00:00 1.9 16 Oeste 35 Oeste 0 -- -- 85
2020-03-03 02:00:00 1.7 12 Sudoeste 28 Sur 0 -- -- 78
2020-03-03 01:00:00 1.7 11 Sudoeste 28 Sudoeste 0 -- -- 74
2020-03-03 00:00:00 0.7 8 Sudoeste 19 Sudoeste 0 -- -- 77
2020-03-02 23:00:00 1.2 11 Oeste 36 Oeste 0 -- -- 81
2020-03-02 22:00:00 1.5 19 Noroeste 39 Noroeste 0 -- -- 80
2020-03-02 21:00:00 1.5 14 Noroeste 39 Oeste 0 -- -- 82
2020-03-02 20:00:00 1.4 18 Oeste 42 Oeste 0 -- -- 80
2020-03-02 19:00:00 2 22 Noroeste 43 Oeste 0 -- -- 81
2020-03-02 18:00:00 2.1 21 Noroeste 44 Noroeste 0 -- -- 86
2020-03-02 17:00:00 2.1 21 Noroeste 43 Oeste 0.4 -- -- 90
2020-03-02 16:00:00 1.8 23 Noroeste 58 Oeste 0 -- -- 87
2020-03-02 15:00:00 4.7 29 Noroeste 54 Noroeste 0 -- -- 69
2020-03-02 14:00:00 5.1 28 Noroeste 53 Noroeste 0 -- -- 73
2020-03-02 13:00:00 4.5 32 Noroeste 57 Noroeste 0 -- -- 72
2020-03-02 12:00:00 3.9 26 Noroeste 61 Oeste 0 -- -- 80
2020-03-02 11:00:00 4 23 Noroeste 41 Oeste 0 -- -- 80
2020-03-02 10:00:00 3.1 25 Noroeste 52 Oeste 0 -- -- 85
2020-03-02 09:00:00 3.1 26 Noroeste 48 Oeste 0 -- -- 87
2020-03-02 08:00:00 2.5 22 Noroeste 64 Oeste 0 -- -- 89
2020-03-02 07:00:00 3.8 23 Noroeste 65 Oeste 0 -- -- 91
2020-03-02 06:00:00 4.4 30 Noroeste 63 Noroeste 0 -- -- 97
2020-03-02 05:00:00 4.1 27 Noroeste 86 Sudoeste 4.4 -- -- 98
2020-03-02 04:00:00 9.8 27 Noroeste 57 Noroeste 0.2 -- -- 85
2020-03-02 03:00:00 9.2 18 Noroeste 68 Norte 0.8 -- -- 90
2020-03-02 02:00:00 9 15 Sudeste 69 Sudeste 0.6 -- -- 90
2020-03-02 01:00:00 8 22 Sur 54 Sur 0.6 -- -- 94
2020-03-02 00:00:00 7 15 Sur 37 Sudeste 0.2 -- -- 91
2020-03-01 23:00:00 7 9 Sur 36 Sur 0.2 -- -- 90
2020-03-01 22:00:00 8.9 6 Sur 52 Noroeste 0 -- -- 67
2020-03-01 21:00:00 10.1 12 Sudoeste 40 Oeste 0 -- -- 58
2020-03-01 20:00:00 10.4 14 Noroeste 40 Oeste 0 -- -- 58
2020-03-01 19:00:00 10.9 13 Oeste 31 Noroeste 0 -- -- 54
2020-03-01 18:00:00 11.4 11 Oeste 39 Noroeste 0 -- -- 55
2020-03-01 17:00:00 12.2 21 Noroeste 53 Noroeste 0 -- -- 53
2020-03-01 16:00:00 12.8 14 Oeste 47 Oeste 0 -- -- 50
2020-03-01 15:00:00 13.3 14 Oeste 43 Noroeste 0 -- -- 52
2020-03-01 14:00:00 12.7 20 Oeste 57 Oeste 0 -- -- 51
2020-03-01 13:00:00 11.5 15 Oeste 45 Oeste 0 -- -- 58
2020-03-01 12:00:00 10.7 17 Oeste 53 Oeste 0 -- -- 64
2020-03-01 11:00:00 9.2 21 Oeste 48 Oeste 0 -- -- 70
2020-03-01 10:00:00 7.2 22 Oeste 52 Sudoeste 0 -- -- 78
2020-03-01 09:00:00 5.8 15 Sur 42 Oeste 0 -- -- 89
2020-03-01 08:00:00 5.8 12 Oeste 53 Sur 0 -- -- 85
2020-03-01 07:00:00 5.7 27 Sudoeste 56 Sur 0 -- -- 82
2020-03-01 06:00:00 5.7 19 Sur 55 Sur 0 -- -- 82
2020-03-01 05:00:00 5.7 13 Sudoeste 45 Noroeste 0 -- -- 81
2020-03-01 04:00:00 6.1 15 Oeste 59 Noroeste 0 -- -- 79
2020-03-01 03:00:00 6.1 11 Noroeste 37 Noroeste 0 -- -- 80
2020-03-01 02:00:00 5.8 13 Oeste 33 Sudoeste 0 -- -- 80
2020-03-01 01:00:00 6 11 Oeste 42 Oeste 0 -- -- 77
2020-03-01 00:00:00 6.4 5 Norte 32 Sur 0 -- -- 70
2020-02-29 23:00:00 7 14 Sudoeste 36 Oeste 0 -- -- 64
2020-02-29 22:00:00 7.5 15 Oeste 33 Sudoeste 0 -- -- 63
2020-02-29 21:00:00 7.9 12 Oeste 31 Oeste 0 -- -- 68
2020-02-29 20:00:00 8.4 12 Oeste 37 Oeste 0 -- -- 63
2020-02-29 19:00:00 8.5 12 Noroeste 28 Oeste 0 -- -- 66
2020-02-29 18:00:00 8.5 3 Sudeste 28 Nordeste 0 -- -- 79
2020-02-29 17:00:00 10.6 6 Noroeste 37 Oeste 0 -- -- 68
2020-02-29 16:00:00 11.3 15 Oeste 38 Noroeste 0 -- -- 68
2020-02-29 15:00:00 11.3 12 Norte 37 Noroeste 0 -- -- 73
2020-02-29 14:00:00 9.6 10 Noroeste 35 Sudoeste 0.2 -- -- 87
2020-02-29 13:00:00 8.5 14 Sudoeste 41 Sudoeste 0 -- -- 89
2020-02-29 12:00:00 7.6 13 Oeste 32 Sudoeste 0 -- -- 92
2020-02-29 11:00:00 6.7 15 Sur 50 Sur 0.2 -- -- 93
2020-02-29 10:00:00 6.5 15 Sur 48 Sudoeste 1.8 -- -- 92
2020-02-29 09:00:00 7.5 24 Sur 61 Sudoeste 0 -- -- 80
2020-02-29 08:00:00 7.5 13 Sudoeste 51 Sur 0 -- -- 76
2020-02-29 07:00:00 7.8 24 Sur 55 Sudeste 0 -- -- 69
2020-02-29 06:00:00 8 19 Sur 64 Sudoeste 0 -- -- 67
2020-02-29 05:00:00 8.6 15 Sur 43 Sur 0 -- -- 66
2020-02-29 04:00:00 9 15 Sudoeste 46 Sudoeste 0 -- -- 62
2020-02-29 03:00:00 9.5 23 Sur 50 Sudoeste 0 -- -- 52
2020-02-29 02:00:00 9.9 22 Sudoeste 55 Sur 0 -- -- 49
2020-02-29 01:00:00 10.5 19 Sudoeste 59 Sudoeste 0 -- -- 47
2020-02-29 00:00:00 11.2 21 Sur 45 Sudoeste 0 -- -- 45